KVAY

Details ICAO KVAY (VAY)
Name SOUTH JERSEY RGNL
Region United States
Timezone America/New_York (UTC-4.0)
Plans Departing 6
Arriving 3
Stats Elevation 53 ft / 16 m (AMSL)
Location 39.942889° -74.845718°
Runways 1
Magnetic Variation 12.280° W
Sunrise 2018-05-21 09:40:42 UTC / 2018-05-21 05:40:42 Local
Sunset 2018-05-22 00:14:07 UTC / 2018-05-21 20:14:07 Local
Advertisement - Login to hide

Runways

ID Width Length Bearing (true) Bearing (mag) Surface Threshold Offset Overrun Length
08 50 ft / 15 m 3,904 ft / 1,190 m 69.76° 82.04° Asphalt 0 ft / 0 m 0 ft / 0 m
26 50 ft / 15 m 3,904 ft / 1,190 m 249.77° 262.05° Asphalt 0 ft / 0 m 0 ft / 0 m

Map

Weather


0- 5 10 15 20 25 30 35+ Temperature / ° C

Clouds and Precipitation
Forecast for 2018-05-21 12:00 UTC. Updated an hour ago

Ground ~20,000 ft ~40,000 ft Winds

METAR

KVAY 210954Z AUTO 00000KT 10SM CLR 14/13 A3016 RMK AO2 SLP211 T01440133

TAF

Not found

Frequencies

Recorded 119.32 MHz ASOS
Approach 124.15 MHz MC GUIRE APP/DEP
Unicom 121.72 MHz CTAF/UNICOM
Warning: Do not use this data for real-world aviation or navigation. No guarantee of current accuracy is given.